createdAt,value
2022-10-19T00:01:06.069Z,16.63
2022-10-19T00:03:34.009Z,17.88
2022-10-19T00:06:01.579Z,16.05
2022-10-19T00:08:28.404Z,16.52
2022-10-19T00:10:55.018Z,16.45
2022-10-19T00:13:21.792Z,15.68
2022-10-19T00:15:48.465Z,15.90
2022-10-19T00:18:24.268Z,17.35
2022-10-19T00:20:50.948Z,17.27
2022-10-19T00:23:21.117Z,18.13
2022-10-19T00:26:00.044Z,18.40
2022-10-19T00:28:40.930Z,17.90
2022-10-19T00:31:15.383Z,18.13
2022-10-19T00:33:44.503Z,20.83
2022-10-19T00:36:21.758Z,18.42
2022-10-19T00:38:48.950Z,19.45
2022-10-19T00:41:17.728Z,20.38
2022-10-19T00:44:13.752Z,19.83
2022-10-19T00:46:43.597Z,20.55
2022-10-19T00:49:18.003Z,23.67
2022-10-19T00:54:13.058Z,25.13
2022-10-19T00:56:42.678Z,21.33
2022-10-19T00:59:10.624Z,18.77
2022-10-19T01:01:37.420Z,17.45
2022-10-19T01:04:05.059Z,17.48
2022-10-19T01:06:32.542Z,17.65
2022-10-19T01:08:59.191Z,19.65
2022-10-19T01:11:34.455Z,17.70
2022-10-19T01:14:14.678Z,16.30
2022-10-19T01:16:56.675Z,20.83
2022-10-19T01:19:35.393Z,17.65
2022-10-19T01:22:23.832Z,17.02
2022-10-19T01:25:06.808Z,16.10
2022-10-19T01:27:53.293Z,16.95
2022-10-19T01:30:27.109Z,17.27
2022-10-19T01:33:09.777Z,16.42
2022-10-19T01:35:43.449Z,17.13
2022-10-19T01:38:34.041Z,18.13
2022-10-19T01:41:10.076Z,17.23
2022-10-19T01:43:48.852Z,16.50
2022-10-19T01:46:34.064Z,17.02
2022-10-19T01:49:08.650Z,16.95
2022-10-19T01:51:40.482Z,17.95
2022-10-19T01:54:12.114Z,17.23
2022-10-19T01:56:43.333Z,17.42
2022-10-19T01:59:12.092Z,19.10
2022-10-19T02:01:44.090Z,16.17
2022-10-19T02:04:13.983Z,16.45
2022-10-19T02:06:41.334Z,16.58
2022-10-19T02:09:08.143Z,15.95
2022-10-19T02:11:37.384Z,20.42
2022-10-19T02:14:12.833Z,18.10
2022-10-19T02:16:52.900Z,20.77
2022-10-19T02:19:20.766Z,18.75
2022-10-19T02:21:47.697Z,18.98
2022-10-19T02:24:14.412Z,20.95
2022-10-19T02:26:42.401Z,19.67
2022-10-19T02:29:11.558Z,19.65
2022-10-19T02:31:38.848Z,18.80
2022-10-19T02:34:06.209Z,18.75
2022-10-19T02:36:33.023Z,16.40
2022-10-19T02:38:59.880Z,17.58
2022-10-19T02:41:39.762Z,17.35
2022-10-19T02:44:15.170Z,17.23
2022-10-19T02:46:45.387Z,14.00
2022-10-19T02:49:13.545Z,16.77
2022-10-19T02:51:56.263Z,14.48
2022-10-19T02:54:24.503Z,16.92
2022-10-19T02:56:51.150Z,15.15
2022-10-19T02:59:18.297Z,20.63
2022-10-19T03:01:57.955Z,18.70
2022-10-19T03:07:10.580Z,10.45
2022-10-19T03:09:39.761Z,12.82
2022-10-19T03:12:06.575Z,10.82
2022-10-19T03:14:33.233Z,10.98
2022-10-19T03:17:09.403Z,9.73
2022-10-19T03:19:36.805Z,11.98
2022-10-19T03:22:04.125Z,12.10
2022-10-19T03:24:39.266Z,11.00
2022-10-19T03:27:08.285Z,12.50
2022-10-19T03:29:42.312Z,14.07
2022-10-19T03:32:11.586Z,13.40
2022-10-19T03:34:38.240Z,11.48
2022-10-19T03:37:04.883Z,13.00
2022-10-19T03:39:31.589Z,15.25
2022-10-19T03:41:58.210Z,14.85
2022-10-19T03:44:25.050Z,12.63
2022-10-19T03:46:53.856Z,13.45
2022-10-19T03:49:20.553Z,11.57
2022-10-19T03:52:06.634Z,12.65
2022-10-19T03:54:55.572Z,11.23
2022-10-19T03:57:24.448Z,12.32
2022-10-19T03:59:53.769Z,11.23
2022-10-19T04:02:20.529Z,11.98
2022-10-19T04:04:47.161Z,12.90
2022-10-19T04:07:13.772Z,14.05
2022-10-19T04:09:41.654Z,12.32
2022-10-19T04:12:08.340Z,13.63
2022-10-19T04:14:52.562Z,13.35
2022-10-19T04:17:21.636Z,12.48
2022-10-19T04:19:48.265Z,12.50
2022-10-19T04:22:15.697Z,12.48
2022-10-19T04:24:42.597Z,15.70
2022-10-19T04:27:09.285Z,12.48
2022-10-19T04:29:36.015Z,12.82
2022-10-19T04:32:02.707Z,15.68
2022-10-19T04:34:29.285Z,11.65
2022-10-19T04:36:59.518Z,11.25
2022-10-19T04:39:26.435Z,11.05
2022-10-19T04:41:53.121Z,12.35
2022-10-19T04:44:19.861Z,12.70
2022-10-19T04:46:47.916Z,12.07
2022-10-19T04:49:17.824Z,13.65
2022-10-19T04:51:46.879Z,13.35
2022-10-19T04:54:13.517Z,16.40
2022-10-19T04:56:40.238Z,11.30
2022-10-19T04:59:06.930Z,13.90
2022-10-19T05:01:33.608Z,12.93
2022-10-19T05:04:02.444Z,11.90
2022-10-19T05:06:31.319Z,10.70
2022-10-19T05:08:58.314Z,10.55
2022-10-19T05:11:25.635Z,11.98
2022-10-19T05:13:52.513Z,13.48
2022-10-19T05:16:21.561Z,13.10
2022-10-19T05:18:56.166Z,15.80
2022-10-19T05:21:23.385Z,12.88
2022-10-19T05:23:54.278Z,10.88
2022-10-19T05:26:23.631Z,11.25
2022-10-19T05:28:56.632Z,11.48
2022-10-19T05:31:28.828Z,10.90
2022-10-19T05:33:56.467Z,11.55
2022-10-19T05:36:26.695Z,10.38
2022-10-19T05:38:55.881Z,12.95
2022-10-19T05:41:23.921Z,12.02
2022-10-19T05:43:58.790Z,13.20
2022-10-19T05:46:27.091Z,12.15
2022-10-19T05:48:55.484Z,10.63
2022-10-19T05:51:23.790Z,11.27
2022-10-19T05:53:50.712Z,11.90
2022-10-19T05:56:20.779Z,12.05
2022-10-19T05:58:48.501Z,9.27
2022-10-19T06:01:19.697Z,9.25
2022-10-19T06:03:50.896Z,9.77
2022-10-19T06:06:18.013Z,12.32
2022-10-19T06:08:47.658Z,8.88
2022-10-19T06:11:23.065Z,9.90
2022-10-19T06:13:51.807Z,11.50
2022-10-19T06:16:19.875Z,15.55
2022-10-19T06:18:47.506Z,12.27
2022-10-19T06:21:17.165Z,9.85
2022-10-19T06:23:44.240Z,10.18
2022-10-19T06:26:14.259Z,9.95
2022-10-19T06:28:45.220Z,11.15
2022-10-19T06:31:13.956Z,11.73
2022-10-19T06:33:42.518Z,19.13
2022-10-19T06:36:12.148Z,12.80
2022-10-19T06:38:40.082Z,19.45
2022-10-19T06:41:06.958Z,12.20
2022-10-19T06:43:34.547Z,9.82
2022-10-19T06:46:05.946Z,10.40
2022-10-19T06:48:32.620Z,10.50
2022-10-19T06:51:00.880Z,11.30
2022-10-19T06:53:29.191Z,10.38
2022-10-19T06:56:00.023Z,12.32
2022-10-19T06:58:27.092Z,10.73
2022-10-19T07:01:01.414Z,12.82
2022-10-19T07:03:29.822Z,13.93
2022-10-19T07:05:58.782Z,13.95
2022-10-19T07:08:27.312Z,13.43
2022-10-19T07:10:57.261Z,10.98
2022-10-19T07:13:24.537Z,12.65
2022-10-19T07:16:01.202Z,13.20
2022-10-19T07:18:27.795Z,14.57
2022-10-19T07:20:56.235Z,12.60
2022-10-19T07:23:23.118Z,14.40
2022-10-19T07:25:49.934Z,11.23
2022-10-19T07:28:16.629Z,14.27
2022-10-19T07:30:43.243Z,14.55
2022-10-19T07:33:09.847Z,14.50
2022-10-19T07:35:36.987Z,13.18
2022-10-19T07:38:03.623Z,13.95
2022-10-19T07:40:30.205Z,12.02
2022-10-19T07:42:56.846Z,13.27
2022-10-19T07:45:23.468Z,14.93
2022-10-19T07:47:50.078Z,13.75
2022-10-19T07:50:16.783Z,21.27
2022-10-19T07:52:43.583Z,13.65
2022-10-19T07:55:10.380Z,13.55
2022-10-19T07:57:36.986Z,13.70
2022-10-19T08:00:04.272Z,12.45
2022-10-19T08:02:39.587Z,14.93
2022-10-19T08:05:19.806Z,16.17
2022-10-19T08:07:47.074Z,16.73
2022-10-19T08:10:13.733Z,14.07
2022-10-19T08:12:40.709Z,16.08
2022-10-19T08:15:07.667Z,13.20
2022-10-19T08:17:38.769Z,14.63
2022-10-19T08:20:07.415Z,13.50
2022-10-19T08:22:34.329Z,16.15
2022-10-19T08:25:01.123Z,13.45
2022-10-19T08:27:29.232Z,14.77
2022-10-19T08:29:56.098Z,13.48
2022-10-19T08:32:22.716Z,17.13
2022-10-19T08:34:49.415Z,13.57
2022-10-19T08:37:25.714Z,13.30
2022-10-19T08:39:52.894Z,16.15
2022-10-19T08:42:42.344Z,14.68
2022-10-19T08:45:21.019Z,14.13
2022-10-19T08:48:30.443Z,14.90
2022-10-19T08:50:59.231Z,17.02
2022-10-19T08:53:50.070Z,17.83
2022-10-19T08:56:50.981Z,19.52
2022-10-19T08:59:37.395Z,34.67
2022-10-19T09:02:26.485Z,18.50
2022-10-19T09:05:35.141Z,16.88
2022-10-19T09:08:02.574Z,16.50
2022-10-19T09:10:34.346Z,17.40
2022-10-19T09:13:07.204Z,19.88
2022-10-19T09:15:36.699Z,17.25
2022-10-19T09:18:03.403Z,16.10
2022-10-19T09:20:39.117Z,15.82
2022-10-19T09:23:24.803Z,16.67
2022-10-19T09:25:52.479Z,15.85
2022-10-19T09:28:39.928Z,16.30
2022-10-19T09:31:14.991Z,15.43
2022-10-19T09:33:44.151Z,15.68
2022-10-19T09:36:22.322Z,14.63
2022-10-19T09:38:54.614Z,16.30
2022-10-19T09:41:23.611Z,23.35
2022-10-19T09:43:54.791Z,50.47
2022-10-19T09:46:38.977Z,13.82
2022-10-19T09:49:06.153Z,14.27
2022-10-19T09:52:00.338Z,15.65
2022-10-19T09:54:35.154Z,14.90
2022-10-19T09:57:03.214Z,14.55
2022-10-19T09:59:34.635Z,15.30
2022-10-19T10:02:22.429Z,13.68
2022-10-19T10:05:14.043Z,12.98
2022-10-19T10:07:42.435Z,24.95
2022-10-19T10:10:30.516Z,13.25
2022-10-19T10:13:01.245Z,11.85
2022-10-19T10:15:35.543Z,16.20
2022-10-19T10:20:32.538Z,14.90
2022-10-19T10:23:04.692Z,15.07
2022-10-19T10:25:34.027Z,13.85
2022-10-19T10:28:04.428Z,13.52
2022-10-19T16:23:42.118Z,14.60
2022-10-19T16:26:09.565Z,13.70
2022-10-19T16:28:36.537Z,14.52
2022-10-19T16:31:12.816Z,16.70
2022-10-19T16:33:39.493Z,16.05
2022-10-19T16:36:08.048Z,17.42
2022-10-19T16:38:35.844Z,16.95
2022-10-19T16:41:10.342Z,16.00
2022-10-19T16:43:45.954Z,19.25
2022-10-19T16:46:21.703Z,19.60
2022-10-19T16:48:51.172Z,17.38
2022-10-19T16:51:37.588Z,17.52
2022-10-19T16:54:09.146Z,15.27
2022-10-19T16:56:36.118Z,13.70
2022-10-19T16:59:05.924Z,14.13
2022-10-19T17:01:34.528Z,13.98
2022-10-19T17:04:04.870Z,16.55
2022-10-19T17:06:33.302Z,13.48
2022-10-19T17:09:36.724Z,21.75
2022-10-19T17:11:49.160Z,13.23
2022-10-19T17:14:15.906Z,13.25
2022-10-19T17:16:42.524Z,14.38
2022-10-19T17:19:18.409Z,14.82
2022-10-19T17:21:45.388Z,14.70
2022-10-19T17:24:21.619Z,14.23
2022-10-19T17:26:50.607Z,15.43
2022-10-19T17:29:17.929Z,13.40
2022-10-19T17:31:44.912Z,13.50
2022-10-19T17:34:11.658Z,13.65
2022-10-19T17:39:18.965Z,14.10
2022-10-19T17:41:47.661Z,15.57
2022-10-19T17:44:15.219Z,15.82
2022-10-19T17:46:42.126Z,17.02
2022-10-19T17:49:09.931Z,18.05
2022-10-19T17:51:39.116Z,17.50
2022-10-19T17:54:09.516Z,20.42
2022-10-19T17:56:37.391Z,21.00
2022-10-19T17:59:04.795Z,19.42
2022-10-19T18:01:31.756Z,20.10
2022-10-19T18:03:58.435Z,19.02
2022-10-19T18:06:28.049Z,17.35
2022-10-19T18:08:56.504Z,17.05
2022-10-19T18:11:49.996Z,19.35
2022-10-19T18:14:16.909Z,21.00
2022-10-19T18:16:45.975Z,18.17
2022-10-19T18:19:15.028Z,17.98
2022-10-19T18:22:26.532Z,18.13
2022-10-19T18:24:53.180Z,18.92
2022-10-19T18:27:19.921Z,29.83
2022-10-19T18:29:46.637Z,17.88
2022-10-19T18:32:15.842Z,21.58
2022-10-19T18:34:42.582Z,21.80
2022-10-19T18:37:09.164Z,18.65
2022-10-19T18:39:35.931Z,18.00
2022-10-19T18:42:02.576Z,18.73
2022-10-19T18:44:32.559Z,18.38
2022-10-19T18:47:00.334Z,18.92
2022-10-19T18:49:27.162Z,18.38
2022-10-19T18:51:55.788Z,15.20
2022-10-19T18:54:24.312Z,14.55
2022-10-19T18:56:51.075Z,15.60
2022-10-19T18:59:18.746Z,15.65
2022-10-19T19:01:47.925Z,15.13
2022-10-19T19:04:14.641Z,17.27
2022-10-19T19:06:42.103Z,13.82
2022-10-19T19:09:11.372Z,13.93
2022-10-19T19:11:40.995Z,14.07
2022-10-19T19:14:20.828Z,18.48
2022-10-19T19:16:47.602Z,12.82
2022-10-19T19:19:16.371Z,11.70
2022-10-19T19:21:44.931Z,12.77
2022-10-19T19:24:18.324Z,11.90
2022-10-19T19:26:52.595Z,12.73
2022-10-19T19:31:47.989Z,12.45
2022-10-19T19:34:34.273Z,13.02
2022-10-19T19:37:00.964Z,17.98
2022-10-19T19:39:27.660Z,16.45
2022-10-19T19:42:04.165Z,14.63
2022-10-19T19:44:40.645Z,13.52
2022-10-19T19:47:19.453Z,15.02
2022-10-19T19:49:46.088Z,13.30
2022-10-19T19:52:40.148Z,12.77
2022-10-19T19:58:19.997Z,12.48
2022-10-19T20:01:12.432Z,13.50
2022-10-19T20:03:52.058Z,13.90
2022-10-19T20:06:22.256Z,12.82
2022-10-19T20:09:12.271Z,13.30
2022-10-19T20:11:42.326Z,12.60
2022-10-19T20:14:09.965Z,12.27
2022-10-19T20:16:37.105Z,12.00
2022-10-19T20:19:12.651Z,12.98
2022-10-19T20:21:40.560Z,12.63
2022-10-19T20:24:08.048Z,12.07
2022-10-19T20:26:34.881Z,12.63
2022-10-19T20:29:03.343Z,11.55
2022-10-19T20:31:31.329Z,11.65
2022-10-19T20:33:58.219Z,11.82
2022-10-19T20:36:26.237Z,11.63
2022-10-19T20:38:54.910Z,12.32
2022-10-19T20:41:23.469Z,11.05
2022-10-19T20:43:50.638Z,11.82
2022-10-19T20:46:21.141Z,10.57
2022-10-19T20:48:48.578Z,10.27
2022-10-19T20:51:16.783Z,10.20
2022-10-19T20:53:47.168Z,9.93
2022-10-19T20:56:17.503Z,10.23
2022-10-19T20:58:45.375Z,8.63
2022-10-19T21:01:18.159Z,9.13
2022-10-19T21:03:58.813Z,9.20
2022-10-19T21:06:26.780Z,9.05
2022-10-19T21:08:54.012Z,8.45
2022-10-19T21:11:23.395Z,7.95
2022-10-19T21:13:54.147Z,9.38
2022-10-19T21:16:25.578Z,8.43
2022-10-19T21:18:52.235Z,8.27
2022-10-19T21:21:30.256Z,7.50
2022-10-19T21:23:59.586Z,7.95
2022-10-19T21:26:28.176Z,6.57
2022-10-19T21:28:56.853Z,7.40
2022-10-19T21:31:25.319Z,7.30
2022-10-19T21:33:52.665Z,8.52
2022-10-19T21:36:21.195Z,6.60
2022-10-19T21:38:48.179Z,8.13
2022-10-19T21:41:23.682Z,6.60
2022-10-19T21:43:53.170Z,7.00
2022-10-19T21:46:21.248Z,6.75
2022-10-19T21:48:48.795Z,6.95
2022-10-19T21:51:38.222Z,9.68
2022-10-19T21:54:06.345Z,6.70
2022-10-19T21:56:34.004Z,6.82
2022-10-19T21:59:00.902Z,7.60
2022-10-19T22:01:29.631Z,7.25
2022-10-19T22:04:01.673Z,8.00
2022-10-19T22:06:31.215Z,8.70
2022-10-19T22:08:58.406Z,6.78
2022-10-19T22:11:25.650Z,7.45
2022-10-19T22:13:57.032Z,10.20
2022-10-19T22:16:24.807Z,4.57
2022-10-19T22:18:51.795Z,6.78
2022-10-19T22:21:21.885Z,7.32
2022-10-19T22:23:53.500Z,7.20
2022-10-19T22:26:23.278Z,4.75
2022-10-19T22:28:50.351Z,4.38
2022-10-19T22:31:16.906Z,5.30
2022-10-19T22:33:43.652Z,4.38
2022-10-19T22:36:11.883Z,4.55
2022-10-19T22:38:38.845Z,4.80
2022-10-19T22:41:05.452Z,4.85
2022-10-19T22:43:32.088Z,5.45
2022-10-19T22:45:58.732Z,6.97
2022-10-19T22:48:25.326Z,4.93
2022-10-19T22:50:55.674Z,4.00
2022-10-19T22:53:23.785Z,4.03
2022-10-19T22:55:50.969Z,4.40
2022-10-19T22:58:19.954Z,4.35
2022-10-19T23:00:56.967Z,4.88
2022-10-19T23:03:23.503Z,3.78
2022-10-19T23:05:50.059Z,4.95
2022-10-19T23:08:16.571Z,5.32
2022-10-19T23:10:43.130Z,4.22
2022-10-19T23:13:11.093Z,4.03
2022-10-19T23:15:41.654Z,4.22
2022-10-19T23:18:10.642Z,4.45
2022-10-19T23:20:37.272Z,4.78
2022-10-19T23:23:04.227Z,5.00
2022-10-19T23:28:02.368Z,5.03
2022-10-19T23:30:28.930Z,4.15
2022-10-19T23:32:55.445Z,4.00
2022-10-19T23:35:22.061Z,3.90
2022-10-19T23:37:48.574Z,4.53
2022-10-19T23:40:15.132Z,4.05
2022-10-19T23:42:41.798Z,4.15
2022-10-19T23:45:08.675Z,4.13
2022-10-19T23:47:35.466Z,3.83
2022-10-19T23:50:02.282Z,4.00
2022-10-19T23:52:28.919Z,3.88
2022-10-19T23:54:55.452Z,4.07
2022-10-19T23:57:22.184Z,3.50
2022-10-19T23:59:48.732Z,3.60
